Oxbow, Oregon
Current Conditions -  °F | °C
As of 2:13 PM on Tuesday 21 Oct 2014 (Local Time) from KMYL Reporting Station
Overcast Overcast  
Wind Chill: 42°   Ceiling: 4900
Heat Index: 46°   Visibility: 10mi
Dew Point: 40°   Wind: 8mph
Humidity: 79%   Direction: 160°SSE
Pressure: 30.01"   Gusts: NA
Location:  44.97°N, 116.86°W
Report Text: KMYL 212113Z AUTO 16007KT 10SM FEW015 SCT026 OVC049 08/04 A3001 RMK AO2 T00780044
Loading
Personal Weather Stations






























Interactive Weather Map
Tropical Storm Tracking
New forecast layout! Learn more

10-Day Weather Forecast

Advertisements
Track Severe Weather on mobile